sensor_id;sensor_type;location;lat;lon;timestamp;pressure;altitude;pressure_sealevel;temperature;humidity
17855;BME280;9053;53.358;6.382;2023-07-24T00:00:57;100169.28;;;19.26;100.00
17855;BME280;9053;53.358;6.382;2023-07-24T00:03:28;100174.59;;;19.26;100.00
17855;BME280;9053;53.358;6.382;2023-07-24T00:06:01;100168.34;;;19.27;100.00
17855;BME280;9053;53.358;6.382;2023-07-24T00:08:31;100172.81;;;19.26;100.00
17855;BME280;9053;53.358;6.382;2023-07-24T00:11:01;100177.28;;;19.24;100.00
17855;BME280;9053;53.358;6.382;2023-07-24T00:13:32;100175.53;;;19.21;100.00
17855;BME280;9053;53.358;6.382;2023-07-24T00:16:06;100179.97;;;19.21;100.00
17855;BME280;9053;53.358;6.382;2023-07-24T00:18:36;100180.03;;;19.18;100.00
17855;BME280;9053;53.358;6.382;2023-07-24T00:21:08;100181.78;;;19.17;100.00
17855;BME280;9053;53.358;6.382;2023-07-24T00:23:40;100187.16;;;19.16;100.00
17855;BME280;9053;53.358;6.382;2023-07-24T00:26:10;100184.50;;;19.14;100.00
17855;BME280;9053;53.358;6.382;2023-07-24T00:28:40;100173.81;;;19.14;100.00
17855;BME280;9053;53.358;6.382;2023-07-24T00:31:09;100173.81;;;19.16;100.00
17855;BME280;9053;53.358;6.382;2023-07-24T00:33:39;100180.03;;;19.15;100.00
17855;BME280;9053;53.358;6.382;2023-07-24T00:36:12;100178.28;;;19.14;100.00
17855;BME280;9053;53.358;6.382;2023-07-24T00:38:42;100171.16;;;19.16;100.00
17855;BME280;9053;53.358;6.382;2023-07-24T00:41:12;100162.28;;;19.14;100.00
17855;BME280;9053;53.358;6.382;2023-07-24T00:43:42;100157.84;;;19.16;100.00
17855;BME280;9053;53.358;6.382;2023-07-24T00:46:13;100164.03;;;19.18;100.00
17855;BME280;9053;53.358;6.382;2023-07-24T00:48:43;100164.03;;;19.18;100.00
17855;BME280;9053;53.358;6.382;2023-07-24T00:51:16;100171.16;;;19.16;100.00
17855;BME280;9053;53.358;6.382;2023-07-24T00:53:46;100180.03;;;19.15;100.00
17855;BME280;9053;53.358;6.382;2023-07-24T00:56:16;100187.19;;;19.13;100.00
17855;BME280;9053;53.358;6.382;2023-07-24T00:58:47;100175.66;;;19.11;100.00
17855;BME280;9053;53.358;6.382;2023-07-24T01:01:21;100177.47;;;19.09;100.00
17855;BME280;9053;53.358;6.382;2023-07-24T01:03:53;100167.72;;;19.08;100.00
17855;BME280;9053;53.358;6.382;2023-07-24T01:06:26;100166.81;;;19.09;100.00
17855;BME280;9053;53.358;6.382;2023-07-24T01:08:56;100169.50;;;19.06;100.00
17855;BME280;9053;53.358;6.382;2023-07-24T01:11:30;100181.03;;;19.05;100.00
17855;BME280;9053;53.358;6.382;2023-07-24T01:14:08;100172.22;;;19.02;100.00
17855;BME280;9053;53.358;6.382;2023-07-24T01:16:41;100166.91;;;18.99;100.00
17855;BME280;9053;53.358;6.382;2023-07-24T01:19:17;100174.06;;;18.96;100.00
17855;BME280;9053;53.358;6.382;2023-07-24T01:22:00;100167.84;;;18.95;100.00
17855;BME280;9053;53.358;6.382;2023-07-24T01:24:37;100160.72;;;18.94;100.00
17855;BME280;9053;53.358;6.382;2023-07-24T01:27:20;100159.00;;;18.92;100.00
17855;BME280;9053;53.358;6.382;2023-07-24T01:29:50;100167.03;;;18.89;100.00
17855;BME280;9053;53.358;6.382;2023-07-24T01:32:19;100162.63;;;18.86;100.00
17855;BME280;9053;53.358;6.382;2023-07-24T01:34:50;100159.06;;;18.84;100.00
17855;BME280;9053;53.358;6.382;2023-07-24T01:37:22;100165.28;;;18.85;100.00
17855;BME280;9053;53.358;6.382;2023-07-24T01:39:55;100164.41;;;18.84;100.00
17855;BME280;9053;53.358;6.382;2023-07-24T01:42:30;100155.53;;;18.82;100.00
17855;BME280;9053;53.358;6.382;2023-07-24T01:45:01;100158.19;;;18.84;100.00
17855;BME280;9053;53.358;6.382;2023-07-24T01:47:32;100159.94;;;18.85;100.00
17855;BME280;9053;53.358;6.382;2023-07-24T01:50:02;100163.53;;;18.85;100.00
17855;BME280;9053;53.358;6.382;2023-07-24T01:52:32;100152.88;;;18.85;100.00
17855;BME280;9053;53.358;6.382;2023-07-24T01:55:02;100143.09;;;18.84;100.00
17855;BME280;9053;53.358;6.382;2023-07-24T01:57:34;100143.09;;;18.86;100.00
17855;BME280;9053;53.358;6.382;2023-07-24T02:00:07;100137.72;;;18.87;100.00
17855;BME280;9053;53.358;6.382;2023-07-24T02:02:37;100136.81;;;18.91;100.00
17855;BME280;9053;53.358;6.382;2023-07-24T02:05:08;100138.53;;;18.94;100.00
17855;BME280;9053;53.358;6.382;2023-07-24T02:07:38;100141.22;;;18.95;100.00
17855;BME280;9053;53.358;6.382;2023-07-24T02:10:09;100138.53;;;18.95;100.00
17855;BME280;9053;53.358;6.382;2023-07-24T02:12:41;100143.88;;;18.95;100.00
17855;BME280;9053;53.358;6.382;2023-07-24T02:15:11;100135.84;;;18.98;100.00
17855;BME280;9053;53.358;6.382;2023-07-24T02:17:41;100126.94;;;18.99;100.00
17855;BME280;9053;53.358;6.382;2023-07-24T02:20:11;100127.78;;;19.01;100.00
17855;BME280;9053;53.358;6.382;2023-07-24T02:22:41;100132.19;;;19.04;100.00
17855;BME280;9053;53.358;6.382;2023-07-24T02:25:11;100133.06;;;19.05;100.00
17855;BME280;9053;53.358;6.382;2023-07-24T02:27:44;100118.88;;;19.06;100.00
17855;BME280;9053;53.358;6.382;2023-07-24T02:30:16;100113.50;;;19.07;100.00
17855;BME280;9053;53.358;6.382;2023-07-24T02:32:45;100118.81;;;19.09;100.00
17855;BME280;9053;53.358;6.382;2023-07-24T02:35:16;100121.44;;;19.12;100.00
17855;BME280;9053;53.358;6.382;2023-07-24T02:37:46;100115.19;;;19.14;100.00
17855;BME280;9053;53.358;6.382;2023-07-24T02:40:15;100110.75;;;19.15;100.00
17855;BME280;9053;53.358;6.382;2023-07-24T02:42:48;100116.97;;;19.15;100.00
17855;BME280;9053;53.358;6.382;2023-07-24T02:45:18;100121.41;;;19.16;100.00
17855;BME280;9053;53.358;6.382;2023-07-24T02:47:48;100119.59;;;19.17;100.00
17855;BME280;9053;53.358;6.382;2023-07-24T02:50:18;100112.53;;;19.16;100.00
17855;BME280;9053;53.358;6.382;2023-07-24T02:52:47;100117.84;;;19.16;100.00
17855;BME280;9053;53.358;6.382;2023-07-24T02:55:17;100112.47;;;19.19;100.00
17855;BME280;9053;53.358;6.382;2023-07-24T02:57:50;100113.34;;;19.21;100.00
17855;BME280;9053;53.358;6.382;2023-07-24T03:00:21;100115.03;;;19.25;100.00
17855;BME280;9053;53.358;6.382;2023-07-24T03:02:52;100118.56;;;19.27;100.00
17855;BME280;9053;53.358;6.382;2023-07-24T03:05:22;100111.44;;;19.29;100.00
17855;BME280;9053;53.358;6.382;2023-07-24T03:07:52;100123.88;;;19.30;100.00
17855;BME280;9053;53.358;6.382;2023-07-24T03:10:22;100117.66;;;19.30;100.00
17855;BME280;9053;53.358;6.382;2023-07-24T03:12:54;100110.53;;;19.32;100.00
17855;BME280;9053;53.358;6.382;2023-07-24T03:15:24;100108.72;;;19.32;100.00
17855;BME280;9053;53.358;6.382;2023-07-24T03:17:54;100115.88;;;19.30;100.00
17855;BME280;9053;53.358;6.382;2023-07-24T03:20:24;100117.69;;;19.28;100.00
17855;BME280;9053;53.358;6.382;2023-07-24T03:22:54;100124.81;;;19.26;100.00
17855;BME280;9053;53.358;6.382;2023-07-24T03:25:24;100123.03;;;19.25;100.00
17855;BME280;9053;53.358;6.382;2023-07-24T03:27:56;100105.31;;;19.22;100.00
17855;BME280;9053;53.358;6.382;2023-07-24T03:30:26;100110.63;;;19.24;100.00
17855;BME280;9053;53.358;6.382;2023-07-24T03:32:57;100107.06;;;19.25;100.00
17855;BME280;9053;53.358;6.382;2023-07-24T03:35:28;100103.50;;;19.24;100.00
17855;BME280;9053;53.358;6.382;2023-07-24T03:37:58;100114.16;;;19.24;100.00
17855;BME280;9053;53.358;6.382;2023-07-24T03:40:27;100106.22;;;19.23;100.00
17855;BME280;9053;53.358;6.382;2023-07-24T03:43:00;100107.09;;;19.23;100.00
17855;BME280;9053;53.358;6.382;2023-07-24T03:45:30;100109.72;;;19.25;100.00
17855;BME280;9053;53.358;6.382;2023-07-24T03:48:00;100113.28;;;19.26;100.00
17855;BME280;9053;53.358;6.382;2023-07-24T03:50:30;100112.38;;;19.25;100.00
17855;BME280;9053;53.358;6.382;2023-07-24T03:53:00;100116.81;;;19.26;100.00
17855;BME280;9053;53.358;6.382;2023-07-24T03:55:30;100115.03;;;19.25;100.00
17855;BME280;9053;53.358;6.382;2023-07-24T03:58:02;100115.03;;;19.25;100.00
17855;BME280;9053;53.358;6.382;2023-07-24T04:00:33;100131.94;;;19.26;100.00
17855;BME280;9053;53.358;6.382;2023-07-24T04:03:03;100123.03;;;19.25;100.00
17855;BME280;9053;53.358;6.382;2023-07-24T04:05:34;100107.97;;;19.24;100.00
17855;BME280;9053;53.358;6.382;2023-07-24T04:08:04;100099.97;;;19.22;100.00
17855;BME280;9053;53.358;6.382;2023-07-24T04:10:34;100105.31;;;19.22;100.00
17855;BME280;9053;53.358;6.382;2023-07-24T04:13:06;100105.34;;;19.21;100.00
17855;BME280;9053;53.358;6.382;2023-07-24T04:15:36;100103.56;;;19.21;100.00
17855;BME280;9053;53.358;6.382;2023-07-24T04:18:06;100114.22;;;19.23;100.00
17855;BME280;9053;53.358;6.382;2023-07-24T04:20:36;100099.97;;;19.24;100.00
17855;BME280;9053;53.358;6.382;2023-07-24T04:23:06;100098.19;;;19.24;100.00
17855;BME280;9053;53.358;6.382;2023-07-24T04:25:37;100101.72;;;19.25;100.00
17855;BME280;9053;53.358;6.382;2023-07-24T04:28:09;100090.16;;;19.26;100.00
17855;BME280;9053;53.358;6.382;2023-07-24T04:30:39;100095.50;;;19.26;100.00
17855;BME280;9053;53.358;6.382;2023-07-24T04:33:09;100089.25;;;19.27;100.00
17855;BME280;9053;53.358;6.382;2023-07-24T04:35:39;100091.91;;;19.27;100.00
17855;BME280;9053;53.358;6.382;2023-07-24T04:38:09;100099.03;;;19.28;100.00
17855;BME280;9053;53.358;6.382;2023-07-24T04:40:39;100091.00;;;19.30;100.00
17855;BME280;9053;53.358;6.382;2023-07-24T04:43:11;100083.88;;;19.30;100.00
17855;BME280;9053;53.358;6.382;2023-07-24T04:45:41;100088.31;;;19.31;100.00
17855;BME280;9053;53.358;6.382;2023-07-24T04:48:11;100092.75;;;19.32;100.00
17855;BME280;9053;53.358;6.382;2023-07-24T04:50:41;100099.84;;;19.33;100.00
17855;BME280;9053;53.358;6.382;2023-07-24T04:53:11;100098.06;;;19.35;100.00
17855;BME280;9053;53.358;6.382;2023-07-24T04:55:41;100094.47;;;19.38;100.00
17855;BME280;9053;53.358;6.382;2023-07-24T04:58:13;100098.00;;;19.38;100.00
17855;BME280;9053;53.358;6.382;2023-07-24T05:00:46;100101.53;;;19.39;100.00
17855;BME280;9053;53.358;6.382;2023-07-24T05:03:16;100089.97;;;19.40;100.00
17855;BME280;9053;53.358;6.382;2023-07-24T05:05:48;100090.88;;;19.40;100.00
17855;BME280;9053;53.358;6.382;2023-07-24T05:08:18;100078.38;;;19.42;100.00
17855;BME280;9053;53.358;6.382;2023-07-24T05:10:53;100075.69;;;19.44;100.00
17855;BME280;9053;53.358;6.382;2023-07-24T05:13:26;100057.03;;;19.45;100.00
17855;BME280;9053;53.358;6.382;2023-07-24T05:15:56;100062.34;;;19.45;100.00
17855;BME280;9053;53.358;6.382;2023-07-24T05:18:26;100063.19;;;19.48;100.00
17855;BME280;9053;53.358;6.382;2023-07-24T05:20:56;100065.84;;;19.49;100.00
17855;BME280;9053;53.358;6.382;2023-07-24T05:23:26;100068.50;;;19.51;100.00
17855;BME280;9053;53.358;6.382;2023-07-24T05:25:56;100074.66;;;19.54;100.00
17855;BME280;9053;53.358;6.382;2023-07-24T05:28:32;100077.25;;;19.57;100.00
17855;BME280;9053;53.358;6.382;2023-07-24T05:31:02;100078.13;;;19.61;100.00
17855;BME280;9053;53.358;6.382;2023-07-24T05:33:32;100076.28;;;19.63;100.00
17855;BME280;9053;53.358;6.382;2023-07-24T05:36:03;100076.25;;;19.66;100.00
17855;BME280;9053;53.358;6.382;2023-07-24T05:38:33;100072.72;;;19.67;100.00
17855;BME280;9053;53.358;6.382;2023-07-24T05:41:03;100080.69;;;19.69;100.00
17855;BME280;9053;53.358;6.382;2023-07-24T05:43:36;100074.44;;;19.71;100.00
17855;BME280;9053;53.358;6.382;2023-07-24T05:46:06;100070.84;;;19.74;100.00
17855;BME280;9053;53.358;6.382;2023-07-24T05:48:36;100072.63;;;19.73;100.00
17855;BME280;9053;53.358;6.382;2023-07-24T05:51:06;100076.22;;;19.71;100.00
17855;BME280;9053;53.358;6.382;2023-07-24T05:53:35;100078.03;;;19.69;100.00
17855;BME280;9053;53.358;6.382;2023-07-24T05:56:05;100082.47;;;19.66;100.00
17855;BME280;9053;53.358;6.382;2023-07-24T05:58:38;100073.59;;;19.64;100.00
17855;BME280;9053;53.358;6.382;2023-07-24T06:01:08;100071.84;;;19.63;100.00
17855;BME280;9053;53.358;6.382;2023-07-24T06:03:39;100071.81;;;19.65;100.00
17855;BME280;9053;53.358;6.382;2023-07-24T06:06:09;100069.16;;;19.65;100.00
17855;BME280;9053;53.358;6.382;2023-07-24T06:08:39;100062.91;;;19.67;100.00
17855;BME280;9053;53.358;6.382;2023-07-24T06:11:08;100059.19;;;19.78;100.00
17855;BME280;9053;53.358;6.382;2023-07-24T06:13:41;100060.66;;;19.97;100.00
17855;BME280;9053;53.358;6.382;2023-07-24T06:16:11;100064.72;;;20.18;100.00
17855;BME280;9053;53.358;6.382;2023-07-24T06:18:41;100073.31;;;20.36;100.00
17855;BME280;9053;53.358;6.382;2023-07-24T06:21:11;100066.88;;;20.47;100.00
17855;BME280;9053;53.358;6.382;2023-07-24T06:23:41;100060.47;;;20.56;100.00
17855;BME280;9053;53.358;6.382;2023-07-24T06:26:11;100061.25;;;20.63;100.00
17855;BME280;9053;53.358;6.382;2023-07-24T06:28:43;100069.13;;;20.70;100.00
17855;BME280;9053;53.358;6.382;2023-07-24T06:31:13;100062.75;;;20.76;100.00
17855;BME280;9053;53.358;6.382;2023-07-24T06:33:40;100068.88;;;20.81;100.00
17855;BME280;9053;53.358;6.382;2023-07-24T06:36:10;100056.16;;;20.94;100.00
17855;BME280;9053;53.358;6.382;2023-07-24T06:38:40;100050.53;;;21.06;100.00
17855;BME280;9053;53.358;6.382;2023-07-24T06:41:11;100047.53;;;21.22;100.00
17855;BME280;9053;53.358;6.382;2023-07-24T06:43:44;100057.88;;;21.38;100.00
17855;BME280;9053;53.358;6.382;2023-07-24T06:46:14;100061.03;;;21.56;100.00
17855;BME280;9053;53.358;6.382;2023-07-24T06:48:45;100062.38;;;21.74;100.00
17855;BME280;9053;53.358;6.382;2023-07-24T06:51:15;100054.06;;;21.86;100.00
17855;BME280;9053;53.358;6.382;2023-07-24T06:53:45;100063.47;;;22.02;100.00
17855;BME280;9053;53.358;6.382;2023-07-24T06:56:15;100058.63;;;22.17;100.00
17855;BME280;9053;53.358;6.382;2023-07-24T06:58:47;100055.41;;;22.38;100.00
17855;BME280;9053;53.358;6.382;2023-07-24T07:01:17;100059.31;;;22.58;100.00
17855;BME280;9053;53.358;6.382;2023-07-24T07:03:47;100066.94;;;22.73;100.00
17855;BME280;9053;53.358;6.382;2023-07-24T07:06:17;100066.63;;;22.84;100.00
17855;BME280;9053;53.358;6.382;2023-07-24T07:08:50;100067.41;;;22.87;99.58
17855;BME280;9053;53.358;6.382;2023-07-24T07:11:20;100072.69;;;22.90;98.66
17855;BME280;9053;53.358;6.382;2023-07-24T07:13:52;100070.63;;;23.00;98.28
17855;BME280;9053;53.358;6.382;2023-07-24T07:16:22;100063.19;;;23.10;97.74
17855;BME280;9053;53.358;6.382;2023-07-24T07:18:52;100061.16;;;23.18;97.04
17855;BME280;9053;53.358;6.382;2023-07-24T07:21:22;100065.50;;;23.22;96.45
17855;BME280;9053;53.358;6.382;2023-07-24T07:23:52;100063.56;;;23.27;95.53
17855;BME280;9053;53.358;6.382;2023-07-24T07:26:22;100068.78;;;23.32;95.28
17855;BME280;9053;53.358;6.382;2023-07-24T07:28:55;100064.19;;;23.36;94.71
17855;BME280;9053;53.358;6.382;2023-07-24T07:31:24;100066.81;;;23.39;94.31
17855;BME280;9053;53.358;6.382;2023-07-24T07:33:54;100064.13;;;23.39;93.87
17855;BME280;9053;53.358;6.382;2023-07-24T07:36:25;100057.00;;;23.38;93.79
17855;BME280;9053;53.358;6.382;2023-07-24T07:38:55;100059.56;;;23.41;93.82
17855;BME280;9053;53.358;6.382;2023-07-24T07:41:25;100057.72;;;23.43;93.44
17855;BME280;9053;53.358;6.382;2023-07-24T07:43:58;100047.72;;;23.48;93.25
17855;BME280;9053;53.358;6.382;2023-07-24T07:46:28;100043.94;;;23.53;93.18
17855;BME280;9053;53.358;6.382;2023-07-24T07:48:58;100041.97;;;23.60;92.67
17855;BME280;9053;53.358;6.382;2023-07-24T07:51:28;100041.09;;;23.60;92.30
17855;BME280;9053;53.358;6.382;2023-07-24T07:53:58;100040.22;;;23.59;92.00
17855;BME280;9053;53.358;6.382;2023-07-24T07:56:28;100043.66;;;23.63;92.22
17855;BME280;9053;53.358;6.382;2023-07-24T07:59:01;100039.13;;;23.65;92.19
17855;BME280;9053;53.358;6.382;2023-07-24T08:01:30;100041.94;;;23.62;91.78
17855;BME280;9053;53.358;6.382;2023-07-24T08:04:01;100051.09;;;23.54;91.24
17855;BME280;9053;53.358;6.382;2023-07-24T08:06:30;100045.03;;;23.48;90.91
17855;BME280;9053;53.358;6.382;2023-07-24T08:09:02;100048.91;;;23.39;90.88
17855;BME280;9053;53.358;6.382;2023-07-24T08:11:32;100050.06;;;23.30;90.94
17855;BME280;9053;53.358;6.382;2023-07-24T08:14:05;100057.47;;;23.22;91.10
17855;BME280;9053;53.358;6.382;2023-07-24T08:16:35;100047.75;;;23.18;91.28
17855;BME280;9053;53.358;6.382;2023-07-24T08:19:05;100053.31;;;23.12;91.54
17855;BME280;9053;53.358;6.382;2023-07-24T08:21:35;100041.66;;;23.13;91.95
17855;BME280;9053;53.358;6.382;2023-07-24T08:24:06;100045.22;;;23.14;92.10
17855;BME280;9053;53.358;6.382;2023-07-24T08:26:35;100039.81;;;23.15;92.04
17855;BME280;9053;53.358;6.382;2023-07-24T08:29:08;100037.13;;;23.15;92.03
17855;BME280;9053;53.358;6.382;2023-07-24T08:31:38;100033.56;;;23.15;91.72
17855;BME280;9053;53.358;6.382;2023-07-24T08:34:08;100031.03;;;23.10;91.48
17855;BME280;9053;53.358;6.382;2023-07-24T08:36:38;100027.50;;;23.08;91.53
17855;BME280;9053;53.358;6.382;2023-07-24T08:39:08;100029.19;;;23.12;91.70
17855;BME280;9053;53.358;6.382;2023-07-24T08:41:37;100035.28;;;23.17;91.55
17855;BME280;9053;53.358;6.382;2023-07-24T08:44:10;100036.13;;;23.19;91.75
17855;BME280;9053;53.358;6.382;2023-07-24T08:46:40;100039.56;;;23.23;92.04
17855;BME280;9053;53.358;6.382;2023-07-24T08:49:13;100033.28;;;23.24;92.05
17855;BME280;9053;53.358;6.382;2023-07-24T08:51:44;100036.00;;;23.22;91.75
17855;BME280;9053;53.358;6.382;2023-07-24T08:54:15;100036.13;;;23.19;92.01
17855;BME280;9053;53.358;6.382;2023-07-24T08:56:46;100036.34;;;23.11;92.04
17855;BME280;9053;53.358;6.382;2023-07-24T08:59:19;100033.06;;;23.02;91.99
17855;BME280;9053;53.358;6.382;2023-07-24T09:01:51;100031.56;;;22.92;91.81
17855;BME280;9053;53.358;6.382;2023-07-24T09:04:21;100031.72;;;22.85;91.67
17855;BME280;9053;53.358;6.382;2023-07-24T09:06:51;100027.41;;;22.81;92.09
17855;BME280;9053;53.358;6.382;2023-07-24T09:09:22;100018.41;;;22.82;92.32
17855;BME280;9053;53.358;6.382;2023-07-24T09:11:53;100013.91;;;22.84;92.40
17855;BME280;9053;53.358;6.382;2023-07-24T09:14:29;100018.25;;;22.88;92.66
17855;BME280;9053;53.358;6.382;2023-07-24T09:17:03;100016.22;;;22.98;92.83
17855;BME280;9053;53.358;6.382;2023-07-24T09:19:34;100015.75;;;23.14;92.92
17855;BME280;9053;53.358;6.382;2023-07-24T09:22:08;100019.63;;;23.31;92.42
17855;BME280;9053;53.358;6.382;2023-07-24T09:24:49;100019.16;;;23.47;91.88
17855;BME280;9053;53.358;6.382;2023-07-24T09:27:20;100005.97;;;23.66;91.56
17855;BME280;9053;53.358;6.382;2023-07-24T09:29:53;100003.03;;;23.75;90.97
17855;BME280;9053;53.358;6.382;2023-07-24T09:32:25;100012.78;;;23.78;90.42
17855;BME280;9053;53.358;6.382;2023-07-24T09:34:57;100010.22;;;23.74;89.44
17855;BME280;9053;53.358;6.382;2023-07-24T09:37:30;100003.25;;;23.67;88.51
17855;BME280;9053;53.358;6.382;2023-07-24T09:40:03;100011.56;;;23.60;88.53
17855;BME280;9053;53.358;6.382;2023-07-24T09:42:35;100015.41;;;23.51;88.49
17855;BME280;9053;53.358;6.382;2023-07-24T09:45:27;100017.63;;;23.38;88.35
17855;BME280;9053;53.358;6.382;2023-07-24T09:48:02;100026.84;;;23.29;88.82
17855;BME280;9053;53.358;6.382;2023-07-24T09:50:37;100034.88;;;23.01;90.24
17855;BME280;9053;53.358;6.382;2023-07-24T09:53:11;100034.84;;;22.70;91.96
17855;BME280;9053;53.358;6.382;2023-07-24T09:55:49;100026.59;;;22.46;93.75
17855;BME280;9053;53.358;6.382;2023-07-24T09:58:20;100023.50;;;22.29;95.45
17855;BME280;9053;53.358;6.382;2023-07-24T10:00:54;100015.88;;;22.14;96.58
17855;BME280;9053;53.358;6.382;2023-07-24T10:03:25;100024.22;;;22.01;97.58
17855;BME280;9053;53.358;6.382;2023-07-24T10:05:55;100013.88;;;21.88;98.38
17855;BME280;9053;53.358;6.382;2023-07-24T10:08:27;100013.94;;;21.85;99.22
17855;BME280;9053;53.358;6.382;2023-07-24T10:11:05;100021.06;;;21.86;100.00
17855;BME280;9053;53.358;6.382;2023-07-24T10:13:36;100023.75;;;21.86;100.00
17855;BME280;9053;53.358;6.382;2023-07-24T10:16:09;100026.44;;;21.84;100.00
17855;BME280;9053;53.358;6.382;2023-07-24T10:18:43;100021.22;;;21.79;100.00
17855;BME280;9053;53.358;6.382;2023-07-24T10:21:13;100021.38;;;21.73;100.00
17855;BME280;9053;53.358;6.382;2023-07-24T10:23:45;100028.63;;;21.70;100.00
17855;BME280;9053;53.358;6.382;2023-07-24T10:26:16;100019.75;;;21.68;100.00
17855;BME280;9053;53.358;6.382;2023-07-24T10:28:47;100031.28;;;21.70;100.00
17855;BME280;9053;53.358;6.382;2023-07-24T10:31:24;100022.25;;;21.74;100.00
17855;BME280;9053;53.358;6.382;2023-07-24T10:34:03;100023.88;;;21.79;100.00
17855;BME280;9053;53.358;6.382;2023-07-24T10:36:34;100031.78;;;21.86;100.00
17855;BME280;9053;53.358;6.382;2023-07-24T10:39:13;100030.66;;;21.94;100.00
17855;BME280;9053;53.358;6.382;2023-07-24T10:41:45;100019.78;;;22.00;100.00
17855;BME280;9053;53.358;6.382;2023-07-24T10:44:15;100025.06;;;22.03;100.00
17855;BME280;9053;53.358;6.382;2023-07-24T10:46:48;100010.84;;;22.01;100.00
17855;BME280;9053;53.358;6.382;2023-07-24T10:49:21;100013.59;;;21.98;100.00
17855;BME280;9053;53.358;6.382;2023-07-24T10:51:55;100010.69;;;22.08;100.00
17855;BME280;9053;53.358;6.382;2023-07-24T10:54:25;100017.50;;;22.21;100.00
17855;BME280;9053;53.358;6.382;2023-07-24T10:56:58;100011.06;;;22.28;100.00
17855;BME280;9053;53.358;6.382;2023-07-24T10:59:36;100014.50;;;22.32;100.00
17855;BME280;9053;53.358;6.382;2023-07-24T11:02:09;100014.50;;;22.32;100.00
17855;BME280;9053;53.358;6.382;2023-07-24T11:04:40;100023.50;;;22.29;100.00
17855;BME280;9053;53.358;6.382;2023-07-24T11:07:10;100017.50;;;22.21;100.00
17855;BME280;9053;53.358;6.382;2023-07-24T11:09:40;100020.47;;;22.09;100.00
17855;BME280;9053;53.358;6.382;2023-07-24T11:12:16;100018.00;;;22.01;100.00
17855;BME280;9053;53.358;6.382;2023-07-24T11:14:49;100022.50;;;21.99;100.00
17855;BME280;9053;53.358;6.382;2023-07-24T11:17:33;100014.34;;;22.03;100.00
17855;BME280;9053;53.358;6.382;2023-07-24T11:20:07;100012.31;;;22.13;100.00
17855;BME280;9053;53.358;6.382;2023-07-24T11:22:41;100016.56;;;22.22;100.00
17855;BME280;9053;53.358;6.382;2023-07-24T11:25:12;100013.78;;;22.25;100.00
17855;BME280;9053;53.358;6.382;2023-07-24T11:27:42;100016.63;;;22.19;100.00
17855;BME280;9053;53.358;6.382;2023-07-24T11:30:19;100011.44;;;22.13;100.00
17855;BME280;9053;53.358;6.382;2023-07-24T11:32:53;100017.81;;;22.07;100.00
17855;BME280;9053;53.358;6.382;2023-07-24T11:35:23;100017.06;;;22.02;100.00
17855;BME280;9053;53.358;6.382;2023-07-24T11:37:53;100017.22;;;21.96;100.00
17855;BME280;9053;53.358;6.382;2023-07-24T11:40:31;100015.50;;;21.93;100.00
17855;BME280;9053;53.358;6.382;2023-07-24T11:43:02;100008.44;;;21.91;100.00
17855;BME280;9053;53.358;6.382;2023-07-24T11:45:41;100021.06;;;21.86;100.00
17855;BME280;9053;53.358;6.382;2023-07-24T11:48:14;100019.28;;;21.85;100.00
17855;BME280;9053;53.358;6.382;2023-07-24T11:50:45;100008.72;;;21.80;100.00
17855;BME280;9053;53.358;6.382;2023-07-24T11:53:23;100007.88;;;21.78;100.00
17855;BME280;9053;53.358;6.382;2023-07-24T11:55:55;100003.38;;;21.80;100.00
17855;BME280;9053;53.358;6.382;2023-07-24T11:58:26;100008.56;;;21.86;100.00
17855;BME280;9053;53.358;6.382;2023-07-24T12:00:56;100008.53;;;21.88;100.00
17855;BME280;9053;53.358;6.382;2023-07-24T12:03:29;100005.03;;;21.84;100.00
17855;BME280;9053;53.358;6.382;2023-07-24T12:06:00;100005.09;;;21.82;100.00
17855;BME280;9053;53.358;6.382;2023-07-24T12:08:32;100006.06;;;21.80;100.00
17855;BME280;9053;53.358;6.382;2023-07-24T12:11:02;100003.38;;;21.80;99.80
17855;BME280;9053;53.358;6.382;2023-07-24T12:13:32;100002.44;;;21.81;99.48
17855;BME280;9053;53.358;6.382;2023-07-24T12:16:04;99994.31;;;21.84;99.39
17855;BME280;9053;53.358;6.382;2023-07-24T12:18:36;99996.03;;;21.88;99.19
17855;BME280;9053;53.358;6.382;2023-07-24T12:21:06;99988.84;;;21.90;98.95
17855;BME280;9053;53.358;6.382;2023-07-24T12:23:36;100005.72;;;21.92;98.19
17855;BME280;9053;53.358;6.382;2023-07-24T12:26:06;100013.72;;;21.94;97.68
17855;BME280;9053;53.358;6.382;2023-07-24T12:28:36;100008.34;;;21.94;97.21
17855;BME280;9053;53.358;6.382;2023-07-24T12:31:06;100005.72;;;21.92;96.74
17855;BME280;9053;53.358;6.382;2023-07-24T12:33:38;100007.63;;;21.87;96.39
17855;BME280;9053;53.358;6.382;2023-07-24T12:36:08;100005.97;;;21.83;95.98
17855;BME280;9053;53.358;6.382;2023-07-24T12:38:38;99997.97;;;21.81;95.89
17855;BME280;9053;53.358;6.382;2023-07-24T12:41:08;100002.53;;;21.78;95.69
17855;BME280;9053;53.358;6.382;2023-07-24T12:43:38;100006.19;;;21.74;95.80
17855;BME280;9053;53.358;6.382;2023-07-24T12:46:07;100005.31;;;21.73;95.91
17855;BME280;9053;53.358;6.382;2023-07-24T12:48:40;100014.31;;;21.71;96.07
17855;BME280;9053;53.358;6.382;2023-07-24T12:51:10;100010.03;;;21.64;95.86
17855;BME280;9053;53.358;6.382;2023-07-24T12:53:40;100019.00;;;21.61;96.19
17855;BME280;9053;53.358;6.382;2023-07-24T12:56:20;100011.94;;;21.58;96.30
17855;BME280;9053;53.358;6.382;2023-07-24T12:58:50;100021.84;;;21.55;96.07
17855;BME280;9053;53.358;6.382;2023-07-24T13:01:20;100013.84;;;21.53;96.55
17855;BME280;9053;53.358;6.382;2023-07-24T13:03:53;100018.25;;;21.54;96.56
17855;BME280;9053;53.358;6.382;2023-07-24T13:06:23;100020.88;;;21.57;96.77
17855;BME280;9053;53.358;6.382;2023-07-24T13:08:54;100018.16;;;21.59;96.48
17855;BME280;9053;53.358;6.382;2023-07-24T13:11:24;100009.13;;;21.65;96.50
17855;BME280;9053;53.358;6.382;2023-07-24T13:13:56;100007.22;;;21.68;96.43